createdAt,value
2023-03-25T00:01:29.894Z,2.73
2023-03-25T00:04:35.281Z,2.08
2023-03-25T00:07:38.578Z,2.60
2023-03-25T00:10:41.698Z,2.00
2023-03-25T00:13:44.734Z,2.10
2023-03-25T00:16:48.666Z,2.00
2023-03-25T00:19:52.154Z,2.08
2023-03-25T00:22:55.035Z,2.03
2023-03-25T00:26:01.238Z,2.50
2023-03-25T00:29:04.283Z,2.05
2023-03-25T00:32:07.718Z,2.07
2023-03-25T00:35:10.496Z,2.70
2023-03-25T00:38:13.321Z,2.70
2023-03-25T00:41:25.592Z,2.60
2023-03-25T00:44:29.759Z,2.70
2023-03-25T00:47:33.017Z,2.77
2023-03-25T00:50:35.826Z,2.83
2023-03-25T00:53:39.487Z,2.33
2023-03-25T00:56:42.206Z,2.33
2023-03-25T00:59:45.099Z,2.83
2023-03-25T01:02:54.019Z,2.83
2023-03-25T01:05:58.108Z,2.63
2023-03-25T01:09:03.771Z,2.80
2023-03-25T01:12:06.570Z,2.72
2023-03-25T01:15:10.909Z,2.75
2023-03-25T01:18:14.004Z,2.63
2023-03-25T01:21:17.197Z,2.60
2023-03-25T01:24:20.443Z,2.70
2023-03-25T01:27:24.766Z,3.47
2023-03-25T01:30:27.629Z,2.88
2023-03-25T01:33:32.770Z,2.60
2023-03-25T01:36:40.135Z,2.60
2023-03-25T01:39:43.345Z,2.60
2023-03-25T01:42:46.658Z,3.47
2023-03-25T01:45:50.924Z,2.85
2023-03-25T01:48:54.122Z,3.60
2023-03-25T01:52:02.912Z,2.80
2023-03-25T01:55:06.253Z,3.33
2023-03-25T01:58:14.195Z,3.13
2023-03-25T02:01:21.953Z,3.83
2023-03-25T02:04:39.339Z,4.10
2023-03-25T02:07:43.141Z,3.38
2023-03-25T02:10:47.256Z,3.72
2023-03-25T02:13:50.595Z,3.38
2023-03-25T02:17:22.369Z,3.78
2023-03-25T02:21:03.587Z,3.07
2023-03-25T02:24:06.414Z,3.33
2023-03-25T02:27:28.449Z,3.13
2023-03-25T02:30:31.665Z,3.20
2023-03-25T02:34:03.630Z,2.95
2023-03-25T02:37:12.659Z,3.07
2023-03-25T02:40:26.755Z,3.50
2023-03-25T02:43:35.184Z,3.28
2023-03-25T02:46:44.760Z,3.20
2023-03-25T02:49:54.681Z,3.50
2023-03-25T02:53:06.286Z,3.30
2023-03-25T02:56:14.813Z,3.58
2023-03-25T02:59:22.258Z,3.50
2023-03-25T03:02:32.688Z,4.00
2023-03-25T03:05:44.123Z,3.63
2023-03-25T03:08:50.022Z,3.90
2023-03-25T03:12:16.100Z,4.07
2023-03-25T03:15:35.128Z,4.03
2023-03-25T03:18:57.399Z,3.50
2023-03-25T03:22:18.628Z,3.47
2023-03-25T03:25:39.410Z,3.40
2023-03-25T03:29:01.076Z,3.50
2023-03-25T03:32:13.412Z,3.38
2023-03-25T03:35:24.871Z,4.22
2023-03-25T03:38:34.941Z,5.60
2023-03-25T03:41:43.003Z,5.53
2023-03-25T03:44:52.230Z,5.30
2023-03-25T03:47:57.843Z,4.80
2023-03-25T03:51:08.033Z,5.03
2023-03-25T03:54:32.465Z,4.10
2023-03-25T03:57:41.479Z,4.63
2023-03-25T04:00:50.535Z,4.25
2023-03-25T04:03:58.504Z,3.35
2023-03-25T04:07:17.408Z,3.38
2023-03-25T04:10:52.911Z,3.00
2023-03-25T04:13:59.473Z,3.17
2023-03-25T04:17:02.141Z,3.00
2023-03-25T04:20:09.240Z,2.35
2023-03-25T04:23:18.620Z,2.42
2023-03-25T04:26:21.849Z,2.50
2023-03-25T04:29:25.771Z,2.70
2023-03-25T04:32:28.579Z,2.40
2023-03-25T04:35:33.219Z,2.40
2023-03-25T04:38:37.863Z,1.75
2023-03-25T04:41:41.099Z,2.28
2023-03-25T04:44:45.328Z,1.50
2023-03-25T04:47:49.789Z,2.08
2023-03-25T04:50:52.800Z,2.10
2023-03-25T04:53:55.985Z,1.40
2023-03-25T04:56:59.242Z,2.05
2023-03-25T05:00:01.988Z,1.13
2023-03-25T05:03:05.590Z,1.70
2023-03-25T05:06:08.319Z,2.58
2023-03-25T05:09:16.823Z,1.60
2023-03-25T05:12:19.566Z,1.65
2023-03-25T05:15:22.309Z,1.20
2023-03-25T05:18:25.377Z,1.90
2023-03-25T05:21:28.297Z,1.70
2023-03-25T05:24:31.096Z,1.45
2023-03-25T05:27:34.713Z,1.13
2023-03-25T05:30:39.466Z,0.87
2023-03-25T05:33:45.220Z,0.65
2023-03-25T05:36:48.088Z,0.60
2023-03-25T05:39:51.960Z,0.70
2023-03-25T05:42:56.163Z,0.60
2023-03-25T05:45:58.852Z,0.20
2023-03-25T05:49:02.431Z,0.30
2023-03-25T05:52:05.361Z,0.40
2023-03-25T05:55:12.323Z,0.40
2023-03-25T05:58:15.100Z,0.20
2023-03-25T06:01:32.774Z,0.63
2023-03-25T06:04:38.147Z,0.30
2023-03-25T06:07:42.977Z,0.20
2023-03-25T06:10:46.136Z,0.50
2023-03-25T06:13:52.003Z,0.47
2023-03-25T06:16:56.915Z,0.57
2023-03-25T06:20:00.828Z,0.50
2023-03-25T06:23:03.617Z,0.82
2023-03-25T06:26:06.996Z,0.90
2023-03-25T06:29:09.846Z,0.88
2023-03-25T06:32:14.558Z,0.50
2023-03-25T06:35:20.120Z,1.10
2023-03-25T06:38:23.900Z,0.70
2023-03-25T06:41:46.265Z,0.98
2023-03-25T06:44:59.860Z,0.95
2023-03-25T06:48:15.060Z,1.30
2023-03-25T06:51:17.820Z,1.08
2023-03-25T06:54:20.795Z,1.67
2023-03-25T06:57:23.536Z,1.30
2023-03-25T07:00:28.553Z,1.10
2023-03-25T07:03:31.427Z,1.50
2023-03-25T07:06:37.796Z,1.00
2023-03-25T07:09:40.560Z,2.05
2023-03-25T07:12:43.329Z,2.42
2023-03-25T07:15:46.362Z,2.70
2023-03-25T07:18:51.104Z,3.57
2023-03-25T07:21:53.957Z,2.92
2023-03-25T07:24:58.548Z,2.05
2023-03-25T07:28:01.301Z,1.77
2023-03-25T07:31:09.876Z,1.38
2023-03-25T07:34:12.645Z,2.10
2023-03-25T07:37:15.662Z,1.95
2023-03-25T07:40:18.756Z,1.30
2023-03-25T07:43:21.808Z,1.20
2023-03-25T07:46:30.712Z,1.42
2023-03-25T07:49:33.627Z,1.50
2023-03-25T07:52:36.442Z,1.98
2023-03-25T07:55:39.228Z,2.60
2023-03-25T07:58:44.574Z,1.40
2023-03-25T08:01:47.420Z,2.10
2023-03-25T08:04:50.193Z,2.63
2023-03-25T08:07:53.206Z,2.20
2023-03-25T08:10:57.089Z,2.20
2023-03-25T08:14:00.069Z,3.35
2023-03-25T08:17:04.751Z,3.47
2023-03-25T08:20:08.005Z,1.77
2023-03-25T08:23:11.140Z,1.30
2023-03-25T08:26:14.006Z,1.48
2023-03-25T08:29:18.037Z,1.55
2023-03-25T08:32:21.740Z,1.83
2023-03-25T08:35:24.602Z,1.30
2023-03-25T08:38:34.645Z,1.60
2023-03-25T08:41:39.110Z,1.50
2023-03-25T08:44:42.095Z,1.40
2023-03-25T08:47:45.937Z,1.13
2023-03-25T08:50:48.893Z,1.30
2023-03-25T08:53:51.676Z,1.70
2023-03-25T08:56:54.814Z,1.52
2023-03-25T08:59:57.567Z,1.60
2023-03-25T09:03:01.012Z,2.10
2023-03-25T09:06:05.672Z,1.53
2023-03-25T09:09:11.051Z,1.27
2023-03-25T09:12:13.994Z,1.13
2023-03-25T09:15:17.028Z,2.25
2023-03-25T09:18:21.309Z,1.90
2023-03-25T09:21:24.187Z,2.17
2023-03-25T09:24:27.205Z,1.60
2023-03-25T09:27:30.143Z,1.80
2023-03-25T09:30:33.106Z,1.90
2023-03-25T09:33:36.928Z,1.23
2023-03-25T09:36:40.120Z,1.70
2023-03-25T09:39:43.016Z,1.20
2023-03-25T09:42:48.344Z,0.80
2023-03-25T09:45:52.663Z,0.80
2023-03-25T09:48:56.589Z,0.63
2023-03-25T09:52:01.015Z,1.03
2023-03-25T09:55:09.041Z,0.93
2023-03-25T09:58:29.256Z,1.20
2023-03-25T10:02:02.532Z,0.90
2023-03-25T10:05:33.496Z,1.67
2023-03-25T10:09:10.680Z,1.00
2023-03-25T10:12:31.619Z,1.30
2023-03-25T10:15:43.852Z,1.70
2023-03-25T10:19:03.643Z,1.42
2023-03-25T10:22:17.136Z,1.20
2023-03-25T10:25:24.341Z,1.13
2023-03-25T10:28:43.719Z,1.23
2023-03-25T10:31:55.090Z,1.00
2023-03-25T10:34:59.082Z,0.90
2023-03-25T10:38:14.604Z,0.52
2023-03-25T10:41:24.407Z,0.67
2023-03-25T10:44:28.011Z,0.50
2023-03-25T10:47:37.016Z,0.43
2023-03-25T10:50:42.298Z,0.63
2023-03-25T10:53:50.196Z,0.80
2023-03-25T10:56:57.780Z,0.77
2023-03-25T11:00:06.853Z,0.47
2023-03-25T11:03:34.610Z,0.60
2023-03-25T11:06:42.382Z,0.82
2023-03-25T11:09:45.186Z,0.47
2023-03-25T11:12:51.709Z,0.53
2023-03-25T11:15:57.685Z,0.57
2023-03-25T11:19:04.497Z,0.80
2023-03-25T11:22:19.488Z,1.02
2023-03-25T11:25:30.982Z,1.20
2023-03-25T11:28:33.628Z,0.70
2023-03-25T11:31:38.031Z,0.60
2023-03-25T11:34:43.821Z,0.68
2023-03-25T11:38:08.151Z,0.70
2023-03-25T11:41:15.397Z,0.52
2023-03-25T11:44:29.190Z,0.53
2023-03-25T11:47:34.938Z,0.50
2023-03-25T11:50:38.108Z,0.60
2023-03-25T11:54:05.255Z,0.50
2023-03-25T11:57:16.492Z,0.38
2023-03-25T12:00:25.131Z,0.53
2023-03-25T12:03:30.863Z,1.08
2023-03-25T12:06:33.714Z,0.90
2023-03-25T12:09:37.099Z,0.50
2023-03-25T12:12:58.210Z,0.38
2023-03-25T12:16:01.033Z,0.20
2023-03-25T12:19:20.975Z,0.40
2023-03-25T12:22:55.304Z,0.20
2023-03-25T12:26:12.089Z,0.50
2023-03-25T12:29:20.410Z,0.60
2023-03-25T12:32:28.880Z,0.30
2023-03-25T12:35:37.985Z,0.20
2023-03-25T12:38:58.852Z,0.35
2023-03-25T12:42:33.810Z,0.30
2023-03-25T12:46:17.700Z,0.80
2023-03-25T12:50:09.285Z,0.67
2023-03-25T12:53:46.559Z,0.63
2023-03-25T12:57:07.859Z,1.00
2023-03-25T13:00:41.975Z,0.63
2023-03-25T13:03:53.254Z,0.70
2023-03-25T13:07:02.944Z,0.70
2023-03-25T13:10:19.058Z,0.70
2023-03-25T13:13:25.846Z,0.40
2023-03-25T13:16:33.047Z,0.70
2023-03-25T13:19:41.262Z,0.57
2023-03-25T13:22:49.504Z,0.57
2023-03-25T13:26:09.720Z,0.40
2023-03-25T13:29:26.606Z,0.65
2023-03-25T13:33:03.808Z,0.60
2023-03-25T13:36:28.042Z,0.88
2023-03-25T13:39:48.395Z,0.50
2023-03-25T13:43:13.522Z,0.50
2023-03-25T13:46:23.351Z,0.38
2023-03-25T13:49:43.967Z,0.38
2023-03-25T13:52:53.262Z,0.70
2023-03-25T13:56:08.869Z,2.97
2023-03-25T13:59:18.545Z,1.90
2023-03-25T14:03:01.042Z,3.42
2023-03-25T14:06:33.549Z,3.15
2023-03-25T14:09:55.848Z,1.58
2023-03-25T14:13:05.161Z,1.00
2023-03-25T14:16:12.349Z,0.68
2023-03-25T14:19:21.319Z,0.50
2023-03-25T14:22:30.114Z,0.63
2023-03-25T14:25:46.709Z,0.63
2023-03-25T14:28:51.470Z,0.63
2023-03-25T14:32:25.589Z,0.43
2023-03-25T14:35:34.584Z,0.10
2023-03-25T14:38:57.405Z,0.20
2023-03-25T14:42:10.880Z,0.20
2023-03-25T14:45:35.733Z,0.40
2023-03-25T14:48:47.766Z,0.38
2023-03-25T14:51:56.598Z,0.20
2023-03-25T14:55:06.397Z,0.30
2023-03-25T14:58:29.317Z,0.13
2023-03-25T15:01:37.082Z,0.13
2023-03-25T15:04:40.608Z,0.15
2023-03-25T15:07:43.541Z,0.10
2023-03-25T15:11:02.512Z,0.10
2023-03-25T15:14:10.481Z,0.00
2023-03-25T15:17:44.756Z,0.13
2023-03-25T15:20:47.604Z,0.20
2023-03-25T15:23:59.729Z,0.25
2023-03-25T15:27:13.419Z,1.05
2023-03-25T15:31:11.222Z,0.40
2023-03-25T15:34:29.347Z,0.30
2023-03-25T15:37:55.054Z,0.43
2023-03-25T15:40:58.096Z,0.50
2023-03-25T15:44:37.935Z,0.30
2023-03-25T15:48:09.082Z,0.28
2023-03-25T15:51:47.086Z,0.60
2023-03-25T15:55:01.361Z,2.10
2023-03-25T15:58:11.644Z,2.80
2023-03-25T16:01:36.130Z,3.30
2023-03-25T16:04:45.146Z,0.43
2023-03-25T16:07:49.249Z,0.40
2023-03-25T16:10:52.131Z,0.28
2023-03-25T16:14:06.884Z,0.50
2023-03-25T16:17:14.121Z,2.47
2023-03-25T16:20:22.113Z,1.27
2023-03-25T16:23:25.296Z,1.60
2023-03-25T16:26:46.257Z,1.40
2023-03-25T16:29:54.118Z,1.00
2023-03-25T16:33:08.704Z,0.88
2023-03-25T16:36:17.736Z,1.27
2023-03-25T16:39:22.721Z,0.70
2023-03-25T16:42:31.338Z,0.70
2023-03-25T16:45:35.742Z,1.10
2023-03-25T16:48:47.526Z,0.90
2023-03-25T16:51:52.089Z,1.00
2023-03-25T16:54:55.029Z,1.10
2023-03-25T16:58:01.228Z,0.93
2023-03-25T17:01:11.415Z,0.98
2023-03-25T17:04:26.214Z,3.38
2023-03-25T17:07:31.118Z,1.17
2023-03-25T17:11:03.505Z,0.97
2023-03-25T17:14:15.118Z,0.95
2023-03-25T17:17:42.307Z,0.88
2023-03-25T17:20:49.137Z,1.20
2023-03-25T17:23:52.698Z,1.00
2023-03-25T17:27:05.443Z,1.73
2023-03-25T17:30:19.752Z,2.45
2023-03-25T17:33:39.827Z,2.47
2023-03-25T17:36:47.176Z,2.13
2023-03-25T17:39:50.322Z,2.72
2023-03-25T17:42:55.832Z,3.60
2023-03-25T17:46:00.831Z,3.60
2023-03-25T17:49:14.250Z,3.38
2023-03-25T17:52:17.992Z,2.92
2023-03-25T17:55:21.300Z,2.60
2023-03-25T17:58:24.219Z,2.40
2023-03-25T18:01:28.414Z,2.13
2023-03-25T18:04:31.323Z,2.90
2023-03-25T18:07:34.761Z,2.30
2023-03-25T18:10:38.949Z,1.88
2023-03-25T18:13:48.155Z,1.60
2023-03-25T18:16:52.230Z,1.50
2023-03-25T18:19:55.039Z,1.50
2023-03-25T18:22:59.035Z,0.80
2023-03-25T18:26:04.612Z,1.05
2023-03-25T18:29:17.900Z,1.00
2023-03-25T18:32:21.291Z,0.85
2023-03-25T18:35:24.115Z,0.70
2023-03-25T18:38:27.801Z,0.88
2023-03-25T18:41:30.684Z,0.65
2023-03-25T18:44:33.806Z,0.83
2023-03-25T18:47:36.911Z,0.88
2023-03-25T18:50:46.247Z,0.77
2023-03-25T18:53:51.040Z,0.60
2023-03-25T18:56:54.092Z,0.60
2023-03-25T18:59:57.304Z,0.33
2023-03-25T19:03:00.455Z,0.68
2023-03-25T19:06:05.619Z,0.98
2023-03-25T19:09:22.876Z,0.85
2023-03-25T19:12:25.951Z,1.42
2023-03-25T19:15:30.575Z,1.30
2023-03-25T19:18:34.428Z,1.77
2023-03-25T19:21:37.871Z,1.85
2023-03-25T19:24:41.267Z,2.10
2023-03-25T19:27:45.143Z,2.30
2023-03-25T19:30:51.480Z,2.00
2023-03-25T19:33:54.565Z,2.00
2023-03-25T19:37:02.907Z,1.60
2023-03-25T19:40:11.089Z,2.05
2023-03-25T19:43:13.853Z,2.10
2023-03-25T19:46:17.020Z,2.10
2023-03-25T19:49:32.607Z,1.70
2023-03-25T19:52:43.535Z,2.22
2023-03-25T19:55:46.681Z,1.92
2023-03-25T19:58:49.592Z,2.60
2023-03-25T20:01:53.263Z,2.07
2023-03-25T20:04:56.290Z,2.15
2023-03-25T20:07:59.832Z,2.10
2023-03-25T20:11:09.556Z,1.30
2023-03-25T20:14:12.508Z,1.67
2023-03-25T20:17:15.490Z,1.53
2023-03-25T20:20:19.857Z,1.48
2023-03-25T20:23:23.003Z,1.88
2023-03-25T20:26:26.326Z,1.25
2023-03-25T20:29:29.257Z,1.33
2023-03-25T20:32:40.472Z,1.00
2023-03-25T20:35:45.642Z,0.98
2023-03-25T20:38:57.304Z,0.80
2023-03-25T20:42:01.734Z,0.77
2023-03-25T20:45:06.031Z,0.85
2023-03-25T20:48:09.255Z,1.00
2023-03-25T20:51:12.469Z,1.02
2023-03-25T20:54:15.351Z,0.90
2023-03-25T20:57:18.344Z,1.15
2023-03-25T21:00:21.492Z,1.00
2023-03-25T21:03:28.504Z,0.90
2023-03-25T21:06:32.532Z,1.27
2023-03-25T21:09:36.794Z,1.50
2023-03-25T21:12:44.225Z,1.00
2023-03-25T21:15:52.441Z,1.25
2023-03-25T21:18:58.111Z,0.80
2023-03-25T21:22:02.066Z,1.95
2023-03-25T21:25:05.420Z,0.85
2023-03-25T21:28:09.062Z,1.00
2023-03-25T21:31:18.883Z,1.08
2023-03-25T21:34:23.110Z,1.30
2023-03-25T21:37:27.150Z,1.30
2023-03-25T21:40:39.510Z,1.25
2023-03-25T21:43:43.020Z,1.67
2023-03-25T21:46:45.813Z,1.38
2023-03-25T21:49:50.101Z,1.07
2023-03-25T21:52:52.825Z,1.15
2023-03-25T21:56:00.186Z,1.48
2023-03-25T21:59:04.673Z,1.08
2023-03-25T22:02:08.776Z,1.13
2023-03-25T22:05:12.859Z,1.13
2023-03-25T22:08:15.699Z,1.05
2023-03-25T22:11:21.948Z,0.82
2023-03-25T22:14:24.844Z,0.52
2023-03-25T22:17:28.126Z,0.77
2023-03-25T22:20:30.947Z,0.60
2023-03-25T22:23:34.665Z,0.80
2023-03-25T22:26:42.451Z,0.60
2023-03-25T22:29:45.557Z,1.05
2023-03-25T22:32:48.363Z,0.98
2023-03-25T22:35:51.522Z,0.80
2023-03-25T22:38:56.355Z,0.60
2023-03-25T22:41:59.248Z,0.80
2023-03-25T22:45:02.026Z,0.70
2023-03-25T22:48:05.036Z,0.90
2023-03-25T22:51:09.900Z,0.90
2023-03-25T22:54:12.667Z,1.00
2023-03-25T22:57:15.556Z,0.70
2023-03-25T23:00:18.837Z,0.95
2023-03-25T23:03:23.442Z,0.70
2023-03-25T23:06:27.117Z,0.80
2023-03-25T23:09:42.564Z,1.10
2023-03-25T23:12:45.512Z,1.50
2023-03-25T23:15:48.286Z,0.60
2023-03-25T23:18:52.101Z,0.90
2023-03-25T23:21:54.833Z,0.93
2023-03-25T23:24:59.223Z,0.98
2023-03-25T23:28:02.217Z,1.05
2023-03-25T23:31:13.739Z,0.90
2023-03-25T23:34:17.421Z,1.10
2023-03-25T23:37:20.381Z,1.40
2023-03-25T23:40:24.822Z,1.20
2023-03-25T23:43:27.876Z,1.33
2023-03-25T23:46:31.371Z,1.67
2023-03-25T23:49:38.262Z,1.63
2023-03-25T23:52:41.391Z,1.50
2023-03-25T23:55:46.262Z,2.00
2023-03-25T23:58:49.308Z,1.73
